createdAt,value
2017-09-05T00:00:55.429Z,71.40
2017-09-05T00:03:22.895Z,71.40
2017-09-05T00:05:50.385Z,71.50
2017-09-05T00:08:31.605Z,71.80
2017-09-05T00:10:59.691Z,71.90
2017-09-05T00:13:29.675Z,72.10
2017-09-05T00:16:13.070Z,72.20
2017-09-05T00:18:44.517Z,72.60
2017-09-05T00:21:13.819Z,72.90
2017-09-05T00:23:41.291Z,73.10
2017-09-05T00:26:08.756Z,73.00
2017-09-05T00:28:36.243Z,73.10
2017-09-05T00:31:03.716Z,73.20
2017-09-05T00:33:31.223Z,73.50
2017-09-05T00:35:58.691Z,73.60
2017-09-05T00:38:26.165Z,73.70
2017-09-05T00:40:53.648Z,73.70
2017-09-05T00:43:21.123Z,73.80
2017-09-05T00:45:48.641Z,73.70
2017-09-05T00:48:16.107Z,74.00
2017-09-05T00:50:43.579Z,74.10
2017-09-05T00:53:11.079Z,74.30
2017-09-05T00:55:38.551Z,74.60
2017-09-05T00:58:06.044Z,74.80
2017-09-05T01:00:33.519Z,74.80
2017-09-05T01:03:00.996Z,74.70
2017-09-05T01:05:28.480Z,74.60
2017-09-05T01:07:55.951Z,74.80
2017-09-05T01:10:23.487Z,74.60
2017-09-05T01:12:50.959Z,74.80
2017-09-05T01:15:18.428Z,74.70
2017-09-05T01:17:45.943Z,74.60
2017-09-05T01:20:13.415Z,74.80
2017-09-05T01:22:40.903Z,74.80
2017-09-05T01:25:08.376Z,74.90
2017-09-05T01:27:35.896Z,75.10
2017-09-05T01:30:03.393Z,75.00
2017-09-05T01:32:30.859Z,75.00
2017-09-05T01:34:58.347Z,75.00
2017-09-05T01:37:25.819Z,75.20
2017-09-05T01:39:53.388Z,75.10
2017-09-05T01:42:21.631Z,75.40
2017-09-05T01:44:49.104Z,75.40
2017-09-05T01:47:16.617Z,75.30
2017-09-05T01:49:44.083Z,75.20
2017-09-05T01:52:11.560Z,75.30
2017-09-05T01:54:39.039Z,75.30
2017-09-05T01:57:06.515Z,75.10
2017-09-05T01:59:34.011Z,75.10
2017-09-05T02:02:01.480Z,75.20
2017-09-05T02:04:28.952Z,75.00
2017-09-05T02:06:56.431Z,75.20
2017-09-05T02:09:23.903Z,75.10
2017-09-05T02:11:51.468Z,75.30
2017-09-05T02:14:19.024Z,75.40
2017-09-05T02:16:46.495Z,75.50
2017-09-05T02:19:13.980Z,75.50
2017-09-05T02:21:41.451Z,75.50
2017-09-05T02:24:08.961Z,75.50
2017-09-05T02:26:36.427Z,75.50
2017-09-05T02:29:03.983Z,76.30
2017-09-05T02:31:31.476Z,75.80
2017-09-05T02:33:58.950Z,75.70
2017-09-05T02:36:26.440Z,75.90
2017-09-05T02:38:53.928Z,75.80
2017-09-05T02:41:21.407Z,75.90
2017-09-05T02:43:48.900Z,76.00
2017-09-05T02:46:16.378Z,75.80
2017-09-05T02:48:43.863Z,76.00
2017-09-05T02:51:11.420Z,76.20
2017-09-05T02:53:38.894Z,76.00
2017-09-05T02:56:06.381Z,76.00
2017-09-05T02:58:33.848Z,76.00
2017-09-05T03:01:01.348Z,76.00
2017-09-05T03:03:28.829Z,75.90
2017-09-05T03:05:56.291Z,76.10
2017-09-05T03:08:23.784Z,76.30
2017-09-05T03:10:51.251Z,76.30
2017-09-05T03:13:18.865Z,76.30
2017-09-05T03:15:46.356Z,76.60
2017-09-05T03:18:13.823Z,76.60
2017-09-05T03:20:41.311Z,76.90
2017-09-05T03:23:08.792Z,76.90
2017-09-05T03:25:36.287Z,77.00
2017-09-05T03:28:03.756Z,77.10
2017-09-05T03:30:31.228Z,77.30
2017-09-05T03:32:58.711Z,77.10
2017-09-05T03:35:26.185Z,77.30
2017-09-05T03:37:53.692Z,77.30
2017-09-05T03:40:21.165Z,77.30
2017-09-05T03:42:48.635Z,77.30
2017-09-05T03:45:16.117Z,77.20
2017-09-05T03:47:43.595Z,77.40
2017-09-05T03:50:11.096Z,77.50
2017-09-05T03:52:38.563Z,77.50
2017-09-05T03:55:06.031Z,78.30
2017-09-05T03:57:33.523Z,77.50
2017-09-05T04:00:01.004Z,77.50
2017-09-05T04:02:28.499Z,77.30
2017-09-05T04:04:55.967Z,77.40
2017-09-05T04:07:23.441Z,77.40
2017-09-05T04:09:50.927Z,78.00
2017-09-05T04:12:18.398Z,77.40
2017-09-05T04:14:45.905Z,77.30
2017-09-05T04:17:13.474Z,77.50
2017-09-05T04:19:40.951Z,77.60
2017-09-05T04:22:08.439Z,77.60
2017-09-05T04:24:35.912Z,77.70
2017-09-05T04:27:03.421Z,77.90
2017-09-05T04:29:30.900Z,77.80
2017-09-05T04:31:58.386Z,77.90
2017-09-05T04:34:25.867Z,77.90
2017-09-05T04:36:53.349Z,77.80
2017-09-05T04:39:20.907Z,77.90
2017-09-05T04:41:48.390Z,78.00
2017-09-05T04:44:15.872Z,78.00
2017-09-05T04:46:43.362Z,77.80
2017-09-05T04:49:11.599Z,77.90
2017-09-05T04:51:39.098Z,77.80
2017-09-05T04:54:06.569Z,77.80
2017-09-05T04:56:34.044Z,77.90
2017-09-05T04:59:01.555Z,77.90
2017-09-05T05:01:29.076Z,78.00
2017-09-05T05:03:56.567Z,78.30
2017-09-05T05:06:24.047Z,77.90
2017-09-05T05:08:51.520Z,78.50
2017-09-05T05:11:19.019Z,77.50
2017-09-05T05:13:46.496Z,77.70
2017-09-05T05:16:14.068Z,77.70
2017-09-05T05:18:41.539Z,77.40
2017-09-05T05:21:09.121Z,77.40
2017-09-05T05:23:36.641Z,77.50
2017-09-05T05:26:04.120Z,77.50
2017-09-05T05:28:31.629Z,78.00
2017-09-05T05:30:59.095Z,77.40
2017-09-05T05:33:26.568Z,77.30
2017-09-05T05:35:54.056Z,77.30
2017-09-05T05:38:21.597Z,77.30
2017-09-05T05:40:49.089Z,77.20
2017-09-05T05:43:16.564Z,77.10
2017-09-05T05:45:44.031Z,77.30
2017-09-05T05:48:11.520Z,77.30
2017-09-05T05:50:39.022Z,77.20
2017-09-05T05:53:06.516Z,77.10
2017-09-05T05:55:35.023Z,77.00
2017-09-05T05:58:02.500Z,77.00
2017-09-05T06:00:29.983Z,76.90
2017-09-05T06:02:57.456Z,76.70
2017-09-05T06:05:25.058Z,76.60
2017-09-05T06:07:52.534Z,76.50
2017-09-05T06:10:20.002Z,76.50
2017-09-05T06:12:47.573Z,76.40
2017-09-05T06:15:15.044Z,76.20
2017-09-05T06:17:42.532Z,76.30
2017-09-05T06:20:10.005Z,76.10
2017-09-05T06:22:37.476Z,76.00
2017-09-05T06:25:04.971Z,75.70
2017-09-05T06:27:32.446Z,75.60
2017-09-05T06:29:59.940Z,75.50
2017-09-05T06:32:27.542Z,76.20
2017-09-05T06:34:55.011Z,76.40
2017-09-05T06:37:22.503Z,75.20
2017-09-05T06:39:50.013Z,74.80
2017-09-05T06:42:17.508Z,74.50
2017-09-05T06:44:44.979Z,74.40
2017-09-05T06:47:12.561Z,74.30
2017-09-05T06:49:40.052Z,74.00
2017-09-05T06:52:07.533Z,74.00
2017-09-05T06:54:35.036Z,74.00
2017-09-05T06:57:02.523Z,73.80
2017-09-05T06:59:29.996Z,73.50
2017-09-05T07:01:57.495Z,73.30
2017-09-05T07:04:24.960Z,73.10
2017-09-05T07:06:52.531Z,72.80
2017-09-05T07:09:20.022Z,72.90
2017-09-05T07:11:47.503Z,72.90
2017-09-05T07:14:14.990Z,72.80
2017-09-05T07:16:42.464Z,72.70
2017-09-05T07:19:09.972Z,72.20
2017-09-05T07:21:37.446Z,71.90
2017-09-05T07:24:04.929Z,71.70
2017-09-05T07:26:32.524Z,71.40
2017-09-05T07:29:00.008Z,71.70
2017-09-05T07:31:27.515Z,71.80
2017-09-05T07:33:54.989Z,71.80
2017-09-05T07:36:22.465Z,71.70
2017-09-05T07:38:49.947Z,71.60
2017-09-05T07:41:17.425Z,71.70
2017-09-05T07:43:45.004Z,71.40
2017-09-05T07:46:12.475Z,71.40
2017-09-05T07:48:39.947Z,71.30
2017-09-05T07:51:07.434Z,71.00
2017-09-05T07:53:34.908Z,70.70
2017-09-05T07:56:02.411Z,70.50
2017-09-05T07:58:29.993Z,70.10
2017-09-05T08:00:57.467Z,70.10
2017-09-05T08:03:24.963Z,69.80
2017-09-05T08:05:52.435Z,69.80
2017-09-05T08:08:19.926Z,69.60
2017-09-05T08:10:47.427Z,69.70
2017-09-05T08:13:15.005Z,69.60
2017-09-05T08:15:42.567Z,69.30
2017-09-05T08:18:10.048Z,69.90
2017-09-05T08:20:37.547Z,69.40
2017-09-05T08:23:05.046Z,68.40
2017-09-05T08:25:32.516Z,67.90
2017-09-05T08:28:00.010Z,67.30
2017-09-05T08:30:27.482Z,66.80
2017-09-05T08:32:54.984Z,67.30
2017-09-05T08:35:22.541Z,67.00
2017-09-05T08:37:50.019Z,66.40
2017-09-05T08:40:17.530Z,66.20
2017-09-05T08:42:45.001Z,66.30
2017-09-05T08:45:12.553Z,66.30
2017-09-05T08:47:40.036Z,65.80
2017-09-05T08:50:07.503Z,65.60
2017-09-05T08:52:34.995Z,65.50
2017-09-05T08:55:02.504Z,65.40
2017-09-05T08:57:30.000Z,64.60
2017-09-05T08:59:57.524Z,65.00
2017-09-05T09:02:25.004Z,64.70
2017-09-05T09:04:52.517Z,65.20
2017-09-05T09:07:19.998Z,65.00
2017-09-05T09:09:47.597Z,65.10
2017-09-05T09:12:15.119Z,64.90
2017-09-05T09:14:42.596Z,64.40
2017-09-05T09:17:10.079Z,64.10
2017-09-05T09:19:37.596Z,63.80
2017-09-05T09:22:05.092Z,63.10
2017-09-05T09:24:32.576Z,63.20
2017-09-05T09:27:00.049Z,63.30
2017-09-05T09:29:27.536Z,63.20
2017-09-05T09:31:55.003Z,62.70
2017-09-05T09:34:22.552Z,62.90
2017-09-05T09:36:50.027Z,62.20
2017-09-05T09:39:17.563Z,61.90
2017-09-05T09:41:45.048Z,62.00
2017-09-05T09:44:12.532Z,61.90
2017-09-05T09:46:40.032Z,61.60
2017-09-05T09:49:07.523Z,61.50
2017-09-05T09:51:35.005Z,61.40
2017-09-05T09:54:02.491Z,61.20
2017-09-05T09:56:29.968Z,61.70
2017-09-05T09:58:57.479Z,61.60
2017-09-05T10:01:24.961Z,61.40
2017-09-05T10:03:52.439Z,61.50
2017-09-05T10:06:19.960Z,61.70
2017-09-05T10:08:47.483Z,62.30
2017-09-05T10:11:15.027Z,62.50
2017-09-05T10:13:42.532Z,62.20
2017-09-05T10:16:10.005Z,61.80
2017-09-05T10:18:37.491Z,61.60
2017-09-05T10:21:04.972Z,61.20
2017-09-05T10:23:32.464Z,60.90
2017-09-05T10:26:00.013Z,60.90
2017-09-05T10:28:27.479Z,60.20
2017-09-05T10:30:54.997Z,59.90
2017-09-05T10:33:22.482Z,59.80
2017-09-05T10:35:49.972Z,59.20
2017-09-05T10:38:17.448Z,59.30
2017-09-05T10:40:44.924Z,59.10
2017-09-05T10:43:12.416Z,59.00
2017-09-05T10:45:39.960Z,58.70
2017-09-05T10:48:07.447Z,58.20
2017-09-05T10:50:34.927Z,57.80
2017-09-05T10:53:02.416Z,57.70
2017-09-05T10:55:30.016Z,57.60
2017-09-05T10:57:57.519Z,57.70
2017-09-05T11:00:25.020Z,57.50
2017-09-05T11:02:52.551Z,57.60
2017-09-05T11:05:20.024Z,57.30
2017-09-05T11:07:47.571Z,57.30
2017-09-05T11:10:15.097Z,57.70
2017-09-05T11:12:42.595Z,57.50
2017-09-05T11:15:10.068Z,57.90
2017-09-05T11:17:37.539Z,58.30
2017-09-05T11:20:05.020Z,58.10
2017-09-05T11:22:32.523Z,58.30
2017-09-05T11:25:00.020Z,58.40
2017-09-05T11:27:27.505Z,58.30
2017-09-05T11:29:55.042Z,58.80
2017-09-05T11:32:22.528Z,58.40
2017-09-05T11:34:50.004Z,58.90
2017-09-05T11:37:17.512Z,59.00
2017-09-05T11:39:44.991Z,59.20
2017-09-05T11:42:12.532Z,59.30
2017-09-05T11:44:40.038Z,59.50
2017-09-05T11:47:07.536Z,59.40
2017-09-05T11:49:35.031Z,59.50
2017-09-05T11:52:02.499Z,59.70
2017-09-05T11:54:29.972Z,59.90
2017-09-05T11:56:57.569Z,59.90
2017-09-05T11:59:25.042Z,60.00
2017-09-05T12:01:52.540Z,59.50
2017-09-05T12:04:20.016Z,59.90
2017-09-05T12:06:47.493Z,60.10
2017-09-05T12:09:14.980Z,59.80
2017-09-05T12:11:42.866Z,60.50
2017-09-05T12:14:10.363Z,59.70
2017-09-05T12:16:37.838Z,59.00
2017-09-05T12:19:05.315Z,59.10
2017-09-05T12:21:32.820Z,59.10
2017-09-05T12:24:00.291Z,59.10
2017-09-05T12:26:27.787Z,59.00
2017-09-05T12:28:55.295Z,59.10
2017-09-05T12:31:22.776Z,59.10
2017-09-05T12:33:50.271Z,59.20
2017-09-05T12:36:17.829Z,59.60
2017-09-05T12:38:45.367Z,60.10
2017-09-05T12:41:12.852Z,60.00
2017-09-05T12:43:40.368Z,60.30
2017-09-05T12:46:07.898Z,60.60
2017-09-05T12:48:35.396Z,61.10
2017-09-05T12:51:02.886Z,61.50
2017-09-05T12:53:30.368Z,61.80
2017-09-05T12:55:57.839Z,62.50
2017-09-05T12:58:25.323Z,61.80
2017-09-05T13:00:52.889Z,60.90
2017-09-05T13:03:20.395Z,59.50
2017-09-05T13:05:47.905Z,58.80
2017-09-05T13:08:15.396Z,58.90
2017-09-05T13:10:42.889Z,59.50
2017-09-05T13:13:10.386Z,58.70
2017-09-05T13:15:37.907Z,58.00
2017-09-05T13:18:05.384Z,57.60
2017-09-05T13:20:32.864Z,57.80
2017-09-05T13:23:00.381Z,57.60
2017-09-05T13:25:27.869Z,56.30
2017-09-05T13:27:55.427Z,54.40
2017-09-05T13:30:22.892Z,54.40
2017-09-05T13:32:50.374Z,54.10
2017-09-05T13:35:17.877Z,53.00
2017-09-05T13:37:45.355Z,52.40
2017-09-05T13:40:12.853Z,51.40
2017-09-05T13:42:40.327Z,52.00
2017-09-05T13:45:07.801Z,51.00
2017-09-05T13:47:35.296Z,51.20
2017-09-05T13:50:03.535Z,51.40
2017-09-05T13:52:31.023Z,51.30
2017-09-05T13:54:58.599Z,50.70
2017-09-05T13:57:26.068Z,51.50
2017-09-05T13:59:53.604Z,50.80
2017-09-05T14:02:21.159Z,51.10
2017-09-05T14:04:48.658Z,50.40
2017-09-05T14:07:16.130Z,50.40
2017-09-05T14:09:43.599Z,51.30
2017-09-05T14:12:11.095Z,51.50
2017-09-05T14:14:38.567Z,52.00
2017-09-05T14:17:06.066Z,52.00
2017-09-05T14:19:33.539Z,52.10
2017-09-05T14:22:01.013Z,51.80
2017-09-05T14:24:28.512Z,52.40
2017-09-05T14:26:55.988Z,52.40
2017-09-05T14:29:23.544Z,53.10
2017-09-05T14:31:51.020Z,53.20
2017-09-05T14:34:18.523Z,53.30
2017-09-05T14:36:46.017Z,53.20
2017-09-05T14:39:13.544Z,53.90
2017-09-05T14:41:41.122Z,54.10
2017-09-05T14:44:08.660Z,53.50
2017-09-05T14:46:36.135Z,53.70
2017-09-05T14:49:03.624Z,53.90
2017-09-05T14:51:31.111Z,53.90
2017-09-05T14:53:58.612Z,54.90
2017-09-05T14:56:26.119Z,54.30
2017-09-05T14:58:53.607Z,54.60
2017-09-05T15:01:21.175Z,55.00
2017-09-05T15:03:48.671Z,55.30
2017-09-05T15:06:16.200Z,54.90
2017-09-05T15:08:43.756Z,55.10
2017-09-05T15:11:11.281Z,55.20
2017-09-05T15:13:38.764Z,55.20
2017-09-05T15:16:06.244Z,55.10
2017-09-05T15:18:33.746Z,56.00
2017-09-05T15:21:01.228Z,55.70
2017-09-05T15:23:28.736Z,56.40
2017-09-05T15:25:56.272Z,56.20
2017-09-05T15:28:23.758Z,56.20
2017-09-05T15:30:51.256Z,56.20
2017-09-05T15:33:18.739Z,55.80
2017-09-05T15:35:46.216Z,55.50
2017-09-05T15:38:13.730Z,54.90
2017-09-05T15:40:41.226Z,54.60
2017-09-05T15:43:08.725Z,54.40
2017-09-05T15:45:36.211Z,54.70
2017-09-05T15:48:03.731Z,54.30
2017-09-05T15:50:31.232Z,54.70
2017-09-05T15:52:58.811Z,55.00
2017-09-05T15:55:26.354Z,55.10
2017-09-05T15:57:53.837Z,55.50
2017-09-05T16:00:21.335Z,55.70
2017-09-05T16:02:48.820Z,55.70
2017-09-05T16:05:16.324Z,55.70
2017-09-05T16:07:43.869Z,55.50
2017-09-05T16:10:11.371Z,55.70
2017-09-05T16:12:38.863Z,55.80
2017-09-05T16:15:06.351Z,56.00
2017-09-05T16:17:33.840Z,56.10
2017-09-05T16:20:01.333Z,56.50
2017-09-05T16:22:30.052Z,56.80
2017-09-05T16:24:57.557Z,56.40
2017-09-05T16:27:25.047Z,56.70
2017-09-05T16:29:52.514Z,56.60
2017-09-05T16:32:20.045Z,56.30
2017-09-05T16:34:47.552Z,56.60
2017-09-05T16:37:15.084Z,57.20
2017-09-05T16:39:42.581Z,56.80
2017-09-05T16:42:10.110Z,56.90
2017-09-05T16:44:37.676Z,57.20
2017-09-05T16:47:05.165Z,57.30
2017-09-05T16:49:32.648Z,57.30
2017-09-05T16:52:00.157Z,57.60
2017-09-05T16:54:27.655Z,57.80
2017-09-05T16:56:55.144Z,58.00
2017-09-05T16:59:22.616Z,58.10
2017-09-05T17:01:50.095Z,58.40
2017-09-05T17:04:17.703Z,59.10
2017-09-05T17:06:45.209Z,58.90
2017-09-05T17:09:12.702Z,59.10
2017-09-05T17:11:40.175Z,59.20
2017-09-05T17:14:07.674Z,59.30
2017-09-05T17:16:35.163Z,59.50
2017-09-05T17:19:02.730Z,59.70
2017-09-05T17:21:30.252Z,59.70
2017-09-05T17:23:57.728Z,59.90
2017-09-05T17:26:25.198Z,60.10
2017-09-05T17:28:52.692Z,60.30
2017-09-05T17:31:20.180Z,60.40
2017-09-05T17:33:47.683Z,60.70
2017-09-05T17:36:15.392Z,60.60
2017-09-05T17:38:42.870Z,61.00
2017-09-05T17:41:10.368Z,60.80
2017-09-05T17:43:37.909Z,61.40
2017-09-05T17:46:05.413Z,61.20
2017-09-05T17:48:32.907Z,61.50
2017-09-05T17:51:00.384Z,61.90
2017-09-05T17:53:27.912Z,63.90
2017-09-05T17:55:55.380Z,66.70
2017-09-05T17:58:22.873Z,66.10
2017-09-05T18:00:50.362Z,66.50
2017-09-05T18:03:17.846Z,66.50
2017-09-05T18:05:46.108Z,66.00
2017-09-05T18:08:13.579Z,66.00
2017-09-05T18:10:41.102Z,66.80
2017-09-05T18:13:08.581Z,64.90
2017-09-05T18:27:25.131Z,66.00
2017-09-05T18:29:52.636Z,65.50
2017-09-05T18:32:20.115Z,65.70
2017-09-05T18:34:49.444Z,65.30
2017-09-05T18:37:16.942Z,65.70
2017-09-05T18:39:44.545Z,66.30
2017-09-05T18:42:12.235Z,65.80
2017-09-05T18:44:39.763Z,66.30
2017-09-05T18:47:07.231Z,66.40
2017-09-05T18:49:34.720Z,66.10
2017-09-05T18:52:02.197Z,66.50
2017-09-05T18:54:30.297Z,66.50
2017-09-05T18:56:57.856Z,66.90
2017-09-05T18:59:25.339Z,66.90
2017-09-05T19:01:52.835Z,67.70
2017-09-05T19:04:20.330Z,67.80
2017-09-05T19:06:47.836Z,67.70
2017-09-05T19:09:15.352Z,67.20
2017-09-05T19:11:42.817Z,66.90
2017-09-05T19:14:10.303Z,66.50
2017-09-05T19:16:37.780Z,66.20
2017-09-05T19:19:05.280Z,66.20
2017-09-05T19:21:32.821Z,65.80
2017-09-05T19:24:00.292Z,65.60
2017-09-05T19:26:27.786Z,65.70
2017-09-05T19:28:55.255Z,65.70
2017-09-05T19:31:22.758Z,65.20
2017-09-05T19:33:50.239Z,65.40
2017-09-05T19:36:17.716Z,65.70
2017-09-05T19:38:45.200Z,65.80
2017-09-05T19:41:12.685Z,65.50
2017-09-05T19:43:41.427Z,66.00
2017-09-05T19:46:08.927Z,66.40
2017-09-05T19:48:36.414Z,66.20
2017-09-05T19:51:03.908Z,66.00
2017-09-05T19:53:31.441Z,66.20
2017-09-05T19:55:59.707Z,65.80
2017-09-05T19:58:27.194Z,65.80
2017-09-05T20:00:54.664Z,66.00
2017-09-05T20:03:22.217Z,65.80
2017-09-05T20:05:49.689Z,65.80
2017-09-05T20:08:17.203Z,65.70
2017-09-05T20:10:44.678Z,65.60
2017-09-05T20:13:12.146Z,65.60
2017-09-05T20:15:39.636Z,65.50
2017-09-05T20:18:07.112Z,65.60
2017-09-05T20:20:34.616Z,65.40
2017-09-05T20:23:02.101Z,65.40
2017-09-05T20:25:29.589Z,65.30
2017-09-05T20:27:57.075Z,65.40
2017-09-05T20:30:24.731Z,65.50
2017-09-05T20:32:52.240Z,65.60
2017-09-05T20:35:19.716Z,65.60
2017-09-05T20:37:47.179Z,65.20
2017-09-05T20:40:14.664Z,65.50
2017-09-05T20:42:42.138Z,65.50
2017-09-05T20:45:09.681Z,65.40
2017-09-05T20:47:37.149Z,65.60
2017-09-05T20:50:04.635Z,65.80
2017-09-05T20:52:32.119Z,65.80
2017-09-05T20:54:59.588Z,66.30
2017-09-05T20:57:27.089Z,66.10
2017-09-05T20:59:54.563Z,66.30
2017-09-05T21:02:22.046Z,66.20
2017-09-05T21:04:49.531Z,66.20
2017-09-05T21:07:17.017Z,66.20
2017-09-05T21:09:44.507Z,66.20
2017-09-05T21:12:11.981Z,66.30
2017-09-05T21:14:39.450Z,66.40
2017-09-05T21:17:06.995Z,66.40
2017-09-05T21:19:34.468Z,66.30
2017-09-05T21:22:01.965Z,66.10
2017-09-05T21:24:29.428Z,66.20
2017-09-05T21:26:56.900Z,66.20
2017-09-05T21:29:24.423Z,66.10
2017-09-05T21:31:51.891Z,66.20
2017-09-05T21:34:19.383Z,66.30
2017-09-05T21:36:46.939Z,66.20
2017-09-05T21:39:14.416Z,66.30
2017-09-05T21:41:41.958Z,66.40
2017-09-05T21:44:09.432Z,66.30
2017-09-05T21:46:36.917Z,66.50
2017-09-05T21:49:04.388Z,66.50
2017-09-05T21:51:31.952Z,66.70
2017-09-05T21:53:59.452Z,66.70
2017-09-05T21:56:26.919Z,67.20
2017-09-05T21:58:54.434Z,66.60
2017-09-05T22:01:21.911Z,66.50
2017-09-05T22:03:49.384Z,67.30
2017-09-05T22:06:16.884Z,66.70
2017-09-05T22:08:44.363Z,66.70
2017-09-05T22:11:11.855Z,66.70
2017-09-05T22:13:39.420Z,66.90
2017-09-05T22:16:06.892Z,66.60
2017-09-05T22:18:40.128Z,66.70
2017-09-05T22:21:13.417Z,66.70
2017-09-05T22:23:40.923Z,67.70
2017-09-05T22:26:14.143Z,66.90
2017-09-05T22:31:41.759Z,66.90
2017-09-05T22:34:09.264Z,67.10
2017-09-05T22:36:36.776Z,67.30
2017-09-05T22:39:04.248Z,67.40
2017-09-05T22:41:31.802Z,68.10
2017-09-05T22:43:59.284Z,67.60
2017-09-05T22:46:26.782Z,67.60
2017-09-05T22:48:54.255Z,67.60
2017-09-05T22:51:21.723Z,67.70
2017-09-05T22:53:49.210Z,67.90
2017-09-05T22:56:16.714Z,67.90
2017-09-05T22:58:44.228Z,68.10
2017-09-05T23:01:11.708Z,68.10
2017-09-05T23:03:39.175Z,68.20
2017-09-05T23:06:06.659Z,68.40
2017-09-05T23:08:34.132Z,68.50
2017-09-05T23:11:01.635Z,68.50
2017-09-05T23:13:29.109Z,68.40
2017-09-05T23:15:56.588Z,68.90
2017-09-05T23:18:24.076Z,68.50
2017-09-05T23:20:51.576Z,68.60
2017-09-05T23:23:19.073Z,68.80
2017-09-05T23:25:46.548Z,68.60
2017-09-05T23:28:14.016Z,68.80
2017-09-05T23:30:41.503Z,68.80
2017-09-05T23:33:08.980Z,68.80
2017-09-05T23:35:36.475Z,68.60
2017-09-05T23:38:03.944Z,68.50
2017-09-05T23:40:31.499Z,68.50
2017-09-05T23:42:58.993Z,68.50
2017-09-05T23:45:26.463Z,68.50
2017-09-05T23:47:54.011Z,68.10
2017-09-05T23:50:21.479Z,67.90
2017-09-05T23:52:48.952Z,67.80
2017-09-05T23:55:16.443Z,67.80
2017-09-05T23:57:44.008Z,67.80
